Babda, Lebanon
Current Conditions -  °F | °C
As of 2:00 AM on Tuesday 21 Oct 2014 (Local Time) from OLBA Reporting Station
Few Clouds Few Clouds  
Wind Chill: 64°   Ceiling: Unl
Heat Index: 64°   Visibility: 6mi
Dew Point: 43°   Wind: 6mph
Humidity: 45%   Direction: 90°E
Pressure: 29.97"   Gusts: NA
Location:  33.88°N, 35.57°E
Report Text: OLBA 202300Z 09005KT 9999 FEW023 18/06 Q1015 NOSIG
Loading
Personal Weather Stations






























Interactive Weather Map
Tropical Storm Tracking
New forecast layout! Learn more

10-Day Weather Forecast

Advertisements
Track Severe Weather on mobile